MAPA DE AEROPUERTO

INFORMACIÓN METAR y TAF

METAR FOR LOWI
ADDS - METARS form results

(1748 UTC 23 October 2021)
Data provider http://aviationweather.gov/metar/data/
 
METAR text: LOWI 231720Z VRB01KT CAVOK 08/03 Q1028 NOSIG
Conditions at: LOWI (INNSBRUCK AIRPOR, AT) observed 1720 UTC 23 October 2021
Temperature: 8.0°C (46°F)
Dewpoint: 3.0°C (37°F) [RH = 71%]
Pressure (altimeter): 30.35 inches Hg (1028.0 mb)
Winds: variable direction winds at 1 MPH (1 knots; 0.5 m/s)
Visibility: 6 or more miles (10+ km)
Ceiling: ceiling and visibility are OK
Clouds: unknown
Weather: no significant weather observed at this time

METAR text: LOWI 231650Z VRB02KT CAVOK 09/02 Q1028 NOSIG
Conditions at: LOWI (INNSBRUCK AIRPOR, AT) observed 1650 UTC 23 October 2021
Temperature: 9.0°C (48°F)
Dewpoint: 2.0°C (36°F) [RH = 61%]
Pressure (altimeter): 30.35 inches Hg (1028.0 mb)
Winds: variable direction winds at 2 MPH (2 knots; 1.0 m/s)
Visibility: 6 or more miles (10+ km)
Ceiling: ceiling and visibility are OK
Clouds: unknown
Weather: no significant weather observed at this time

Forecast for: LOWI (INNSBRUCK AIRPOR, AT)
Text: TAF LOWI 231715Z 2318/2418 VRB02KT CAVOK TX15/2414Z TN01/2405Z
Forecast period: 1800 UTC 23 October 2021 to 0800 UTC 24 October 2021
Forecast type: FROM: standard forecast or significant change
Winds: variable direction winds at 2 MPH (2 knots; 1.0 m/s)
Visibility: 6 or more miles (10+ km)
Ceiling: unknown
Clouds: missing
Weather: no significant weather forecast for this period
Text: BECMG 2408/2410 08008KT
Forecast period: 0800 to 1600 UTC 24 October 2021
Forecast type: BECOMING: Conditions expected to become as follows by 1000 UTC 24 October 2021
Winds: from the E (80 degrees) at 9 MPH (8 knots; 4.1 m/s)
Visibility: 6 or more miles (10+ km)
Ceiling: unknown
Clouds: missing
Weather: no significant weather forecast for this period
Text: BECMG 2416/2418 VRB02KT
Forecast period: 1600 to 1800 UTC 24 October 2021
Forecast type: BECOMING: Conditions expected to become as follows by 1800 UTC 24 October 2021
Winds: variable direction winds at 2 MPH (2 knots; 1.0 m/s)
Visibility: 6 or more miles (10+ km)
Ceiling: unknown
Clouds: missing
Weather: no significant weather forecast for this period